createdAt,value
2022-12-15T00:01:02.063Z,23.88
2022-12-15T00:02:02.242Z,26.48
2022-12-15T00:03:02.715Z,26.50
2022-12-15T00:04:03.187Z,27.55
2022-12-15T00:05:03.722Z,27.63
2022-12-15T00:06:04.119Z,27.42
2022-12-15T00:07:04.430Z,25.52
2022-12-15T00:08:04.648Z,24.63
2022-12-15T00:09:07.540Z,28.45
2022-12-15T00:10:11.187Z,27.60
2022-12-15T00:11:11.512Z,24.58
2022-12-15T00:12:11.912Z,25.98
2022-12-15T00:13:15.282Z,25.02
2022-12-15T00:14:15.848Z,26.38
2022-12-15T00:15:16.267Z,26.23
2022-12-15T00:16:17.096Z,24.98
2022-12-15T00:17:17.384Z,25.10
2022-12-15T00:18:22.598Z,28.42
2022-12-15T00:19:23.083Z,24.13
2022-12-15T00:20:23.606Z,23.23
2022-12-15T00:21:23.980Z,27.42
2022-12-15T00:22:24.702Z,27.67
2022-12-15T00:23:29.458Z,27.55
2022-12-15T00:24:29.998Z,26.15
2022-12-15T00:25:30.415Z,26.40
2022-12-15T00:26:30.812Z,27.48
2022-12-15T00:27:31.059Z,26.25
2022-12-15T00:28:31.115Z,26.15
2022-12-15T00:29:34.154Z,30.63
2022-12-15T00:30:34.574Z,29.38
2022-12-15T00:31:34.636Z,25.98
2022-12-15T00:32:36.727Z,24.95
2022-12-15T00:33:36.802Z,27.98
2022-12-15T00:34:37.131Z,25.55
2022-12-15T00:35:37.569Z,27.67
2022-12-15T00:36:38.028Z,29.33
2022-12-15T00:37:38.037Z,28.50
2022-12-15T00:38:38.538Z,25.90
2022-12-15T00:39:20.285Z,26.27
2022-12-15T00:40:04.201Z,25.33
2022-12-15T00:40:45.853Z,26.48
2022-12-15T00:41:29.549Z,26.20
2022-12-15T00:42:11.275Z,26.35
2022-12-15T00:42:52.926Z,29.73
2022-12-15T00:43:36.387Z,26.90
2022-12-15T00:44:20.756Z,25.45
2022-12-15T00:45:02.705Z,28.75
2022-12-15T00:46:03.009Z,27.17
2022-12-15T00:46:56.834Z,27.73
2022-12-15T00:47:38.514Z,27.25
2022-12-15T00:48:20.189Z,29.95
2022-12-15T00:49:02.413Z,27.48
2022-12-15T00:50:05.382Z,29.55
2022-12-15T00:50:52.780Z,21.55
2022-12-15T00:51:53.017Z,25.67
2022-12-15T00:52:53.672Z,24.27
2022-12-15T00:53:54.022Z,25.63
2022-12-15T00:54:54.486Z,25.58
2022-12-15T00:55:54.791Z,25.67
2022-12-15T00:56:54.857Z,27.50
2022-12-15T00:57:55.076Z,24.92
2022-12-15T00:58:55.176Z,25.13
2022-12-15T00:59:55.227Z,26.83
2022-12-15T01:00:57.686Z,26.90
2022-12-15T01:01:58.126Z,26.80
2022-12-15T01:02:58.568Z,25.63
2022-12-15T01:03:58.815Z,27.58
2022-12-15T01:04:59.550Z,23.48
2022-12-15T01:06:04.029Z,26.02
2022-12-15T01:07:04.471Z,23.20
2022-12-15T01:08:07.973Z,28.77
2022-12-15T01:09:08.334Z,26.45
2022-12-15T01:10:08.574Z,24.25
2022-12-15T01:11:11.180Z,26.85
2022-12-15T01:12:13.115Z,25.95
2022-12-15T01:13:13.173Z,25.67
2022-12-15T01:14:13.425Z,24.83
2022-12-15T01:15:13.656Z,26.15
2022-12-15T01:16:13.710Z,28.13
2022-12-15T01:17:14.037Z,24.60
2022-12-15T01:18:14.048Z,29.35
2022-12-15T01:19:14.092Z,27.77
2022-12-15T01:20:14.361Z,23.60
2022-12-15T01:21:01.306Z,28.02
2022-12-15T01:21:42.957Z,27.30
2022-12-15T01:22:24.672Z,26.15
2022-12-15T01:23:08.819Z,23.77
2022-12-15T01:23:52.793Z,28.75
2022-12-15T01:24:35.277Z,25.42
2022-12-15T01:25:18.522Z,28.70
2022-12-15T01:26:00.759Z,25.40
2022-12-15T01:26:47.246Z,22.65
2022-12-15T01:27:28.881Z,23.70
2022-12-15T01:28:10.808Z,28.25
2022-12-15T01:28:52.456Z,28.52
2022-12-15T01:29:34.145Z,28.50
2022-12-15T01:30:18.791Z,28.08
2022-12-15T01:31:00.492Z,28.27
2022-12-15T01:31:43.373Z,26.63
2022-12-15T01:32:25.474Z,28.42
2022-12-15T01:33:09.817Z,27.02
2022-12-15T01:33:54.688Z,25.85
2022-12-15T01:34:36.334Z,30.83
2022-12-15T01:35:19.048Z,31.83
2022-12-15T01:36:04.728Z,25.33
2022-12-15T01:36:46.602Z,26.85
2022-12-15T01:37:28.217Z,28.27
2022-12-15T01:38:10.509Z,26.52
2022-12-15T01:38:55.170Z,28.42
2022-12-15T01:39:55.577Z,24.85
2022-12-15T01:40:47.155Z,27.40
2022-12-15T01:41:29.808Z,27.88
2022-12-15T01:42:13.401Z,25.02
2022-12-15T01:42:55.064Z,27.05
2022-12-15T01:43:39.235Z,30.10
2022-12-15T01:44:24.144Z,24.88
2022-12-15T01:45:26.514Z,26.42
2022-12-15T01:46:20.964Z,28.20
2022-12-15T01:47:02.823Z,27.33
2022-12-15T01:47:44.658Z,28.45
2022-12-15T01:48:41.550Z,28.30
2022-12-15T01:49:29.338Z,26.60
2022-12-15T01:50:14.722Z,26.70
2022-12-15T01:51:20.845Z,24.75
2022-12-15T01:52:06.157Z,25.33
2022-12-15T01:52:49.690Z,29.00
2022-12-15T01:53:40.814Z,25.08
2022-12-15T01:54:38.691Z,26.85
2022-12-15T01:55:23.923Z,24.95
2022-12-15T01:56:08.428Z,25.58
2022-12-15T01:56:56.810Z,27.65
2022-12-15T01:57:38.903Z,26.77
2022-12-15T01:58:22.211Z,26.67
2022-12-15T01:59:05.592Z,29.70
2022-12-15T01:59:53.580Z,26.73
2022-12-15T02:00:35.425Z,27.88
2022-12-15T02:01:18.876Z,26.98
2022-12-15T02:02:00.924Z,27.02
2022-12-15T02:02:45.220Z,25.05
2022-12-15T02:03:27.146Z,27.00
2022-12-15T02:04:09.004Z,25.63
2022-12-15T02:04:52.672Z,27.65
2022-12-15T02:05:35.405Z,27.95
2022-12-15T02:06:21.552Z,27.85
2022-12-15T02:07:03.652Z,26.58
2022-12-15T02:07:45.307Z,26.92
2022-12-15T02:08:27.149Z,26.75
2022-12-15T02:09:08.940Z,25.17
2022-12-15T02:09:52.276Z,24.52
2022-12-15T02:10:55.563Z,27.02
2022-12-15T02:11:52.746Z,25.48
2022-12-15T02:12:43.625Z,26.65
2022-12-15T02:13:25.238Z,27.63
2022-12-15T02:14:09.506Z,26.00
2022-12-15T02:14:53.971Z,26.63
2022-12-15T02:15:55.146Z,24.48
2022-12-15T02:16:39.869Z,25.05
2022-12-15T02:17:23.481Z,26.75
2022-12-15T02:18:15.349Z,25.00
2022-12-15T02:19:12.031Z,27.13
2022-12-15T02:20:24.285Z,26.05
2022-12-15T02:21:21.786Z,26.63
2022-12-15T02:22:27.117Z,24.38
2022-12-15T02:23:35.202Z,26.27
2022-12-15T02:24:39.144Z,27.92
2022-12-15T02:26:03.776Z,24.10
2022-12-15T02:27:15.567Z,27.98
2022-12-15T02:28:06.437Z,27.48
2022-12-15T02:28:57.382Z,27.63
2022-12-15T02:30:12.831Z,28.55
2022-12-15T02:31:27.733Z,26.00
2022-12-15T02:32:16.599Z,27.88
2022-12-15T02:33:16.708Z,26.33
2022-12-15T02:34:05.375Z,30.50
2022-12-15T02:35:11.892Z,24.95
2022-12-15T02:36:29.114Z,29.23
2022-12-15T02:37:30.515Z,24.33
2022-12-15T02:38:12.348Z,26.73
2022-12-15T02:38:56.572Z,27.45
2022-12-15T02:39:38.220Z,27.23
2022-12-15T02:40:19.964Z,31.00
2022-12-15T02:41:04.036Z,30.15
2022-12-15T02:41:54.719Z,28.30
2022-12-15T02:42:42.606Z,24.70
2022-12-15T02:43:25.815Z,28.42
2022-12-15T02:44:17.059Z,26.38
2022-12-15T02:45:04.069Z,25.63
2022-12-15T02:46:17.860Z,27.30
2022-12-15T02:47:17.935Z,26.17
2022-12-15T02:48:24.972Z,27.45
2022-12-15T02:49:30.804Z,26.88
2022-12-15T02:50:18.528Z,23.67
2022-12-15T02:51:37.067Z,27.00
2022-12-15T02:52:46.344Z,27.48
2022-12-15T02:53:55.826Z,28.25
2022-12-15T02:55:00.493Z,29.38
2022-12-15T02:55:57.529Z,25.98
2022-12-15T02:56:44.057Z,29.73
2022-12-15T02:57:39.802Z,26.38
2022-12-15T02:58:27.792Z,25.25
2022-12-15T02:59:25.525Z,30.02
2022-12-15T03:00:11.949Z,26.45
2022-12-15T03:01:11.713Z,26.45
2022-12-15T03:01:58.434Z,25.10
2022-12-15T03:02:45.569Z,31.13
2022-12-15T03:03:31.112Z,29.50
2022-12-15T03:04:13.401Z,31.40
2022-12-15T03:04:59.008Z,30.42
2022-12-15T03:05:40.978Z,27.60
2022-12-15T03:06:25.357Z,24.80
2022-12-15T03:07:11.309Z,25.20
2022-12-15T03:07:54.486Z,24.92
2022-12-15T03:08:41.051Z,22.50
2022-12-15T03:09:22.855Z,23.95
2022-12-15T03:10:06.889Z,27.80
2022-12-15T03:10:51.236Z,28.67
2022-12-15T03:11:33.178Z,25.77
2022-12-15T03:12:17.567Z,22.52
2022-12-15T03:12:59.230Z,26.65
2022-12-15T03:13:40.903Z,25.70
2022-12-15T03:14:22.622Z,26.05
2022-12-15T03:15:07.405Z,24.83
2022-12-15T03:15:50.325Z,27.90
2022-12-15T03:16:32.022Z,27.33
2022-12-15T03:17:15.609Z,26.48
2022-12-15T03:17:57.253Z,25.08
2022-12-15T03:18:38.894Z,26.77
2022-12-15T03:19:21.051Z,30.52
2022-12-15T03:20:02.909Z,30.77
2022-12-15T03:20:49.996Z,26.30
2022-12-15T03:21:31.644Z,24.92
2022-12-15T03:22:13.312Z,23.67
2022-12-15T03:22:54.941Z,24.67
2022-12-15T03:23:36.639Z,27.30
2022-12-15T03:24:20.146Z,33.03
2022-12-15T03:25:10.719Z,29.15
2022-12-15T03:25:52.371Z,25.23
2022-12-15T03:26:34.068Z,26.02
2022-12-15T03:27:15.764Z,26.33
2022-12-15T03:28:02.251Z,28.67
2022-12-15T03:28:46.837Z,26.42
2022-12-15T03:29:28.505Z,32.58
2022-12-15T03:30:10.699Z,26.50
2022-12-15T03:30:52.396Z,27.08
2022-12-15T03:31:34.730Z,22.13
2022-12-15T03:32:16.718Z,24.13
2022-12-15T03:32:58.396Z,26.05
2022-12-15T03:33:42.718Z,30.35
2022-12-15T03:34:24.379Z,28.00
2022-12-15T03:35:09.539Z,25.60
2022-12-15T03:35:51.288Z,25.88
2022-12-15T03:36:32.945Z,25.08
2022-12-15T03:37:14.602Z,27.33
2022-12-15T03:37:56.260Z,29.17
2022-12-15T03:38:37.900Z,29.25
2022-12-15T03:39:19.608Z,25.92
2022-12-15T03:40:01.278Z,28.35
2022-12-15T03:40:42.951Z,30.38
2022-12-15T03:41:24.581Z,26.88
2022-12-15T03:42:06.254Z,27.40
2022-12-15T03:42:48.496Z,27.15
2022-12-15T03:43:33.516Z,26.33
2022-12-15T03:44:15.650Z,25.67
2022-12-15T03:44:58.845Z,29.17
2022-12-15T03:45:40.541Z,27.25
2022-12-15T03:46:22.269Z,25.65
2022-12-15T03:47:04.186Z,29.80
2022-12-15T03:47:46.992Z,28.17
2022-12-15T03:48:28.619Z,24.77
2022-12-15T03:49:10.272Z,28.33
2022-12-15T03:49:51.916Z,25.80
2022-12-15T03:50:33.649Z,27.23
2022-12-15T03:51:15.355Z,28.55
2022-12-15T03:51:57.051Z,26.33
2022-12-15T03:52:38.734Z,29.08
2022-12-15T03:53:20.360Z,25.58
2022-12-15T03:54:02.131Z,27.05
2022-12-15T03:54:43.774Z,27.20
2022-12-15T03:55:26.516Z,28.33
2022-12-15T03:56:11.248Z,26.45
2022-12-15T03:56:52.939Z,26.10
2022-12-15T03:57:34.797Z,24.80
2022-12-15T03:58:16.657Z,25.27
2022-12-15T03:58:58.280Z,26.65
2022-12-15T03:59:39.979Z,26.08
2022-12-15T04:00:25.277Z,28.20
2022-12-15T04:01:10.847Z,26.75
2022-12-15T04:01:52.666Z,32.40
2022-12-15T04:02:37.056Z,25.90
2022-12-15T04:03:18.786Z,26.48
2022-12-15T04:04:01.727Z,26.10
2022-12-15T04:04:45.574Z,26.42
2022-12-15T04:05:35.567Z,26.25
2022-12-15T04:06:17.231Z,31.85
2022-12-15T04:07:01.466Z,29.25
2022-12-15T04:07:43.137Z,26.00
2022-12-15T04:08:26.734Z,26.67
2022-12-15T04:09:08.471Z,23.70
2022-12-15T04:09:50.092Z,27.90
2022-12-15T04:10:34.835Z,29.75
2022-12-15T04:11:20.375Z,25.58
2022-12-15T04:12:03.292Z,27.50
2022-12-15T04:12:45.024Z,30.40
2022-12-15T04:13:29.820Z,26.80
2022-12-15T04:14:11.764Z,25.85
2022-12-15T04:14:53.964Z,27.27
2022-12-15T04:15:37.303Z,26.48
2022-12-15T04:16:20.267Z,27.10
2022-12-15T04:17:02.302Z,29.42
2022-12-15T04:17:44.023Z,25.15
2022-12-15T04:18:34.349Z,25.15
2022-12-15T04:19:36.925Z,28.88
2022-12-15T04:20:18.906Z,25.85
2022-12-15T04:21:03.088Z,23.90
2022-12-15T04:21:44.729Z,28.33
2022-12-15T04:22:26.369Z,31.38
2022-12-15T04:23:08.330Z,30.75
2022-12-15T04:24:09.271Z,30.70
2022-12-15T04:25:09.236Z,24.98
2022-12-15T04:26:09.460Z,25.90
2022-12-15T04:27:09.656Z,30.67
2022-12-15T04:28:09.878Z,27.17
2022-12-15T04:29:10.181Z,26.25
2022-12-15T04:30:10.236Z,28.45
2022-12-15T04:31:14.453Z,25.75
2022-12-15T04:32:14.742Z,28.95
2022-12-15T04:33:14.974Z,28.13
2022-12-15T04:34:20.094Z,26.90
2022-12-15T04:35:20.251Z,26.00
2022-12-15T04:36:20.936Z,26.27
2022-12-15T04:37:21.064Z,28.63
2022-12-15T04:38:23.376Z,27.17
2022-12-15T04:39:24.196Z,27.42
2022-12-15T04:40:28.111Z,25.92
2022-12-15T04:41:28.611Z,25.10
2022-12-15T04:42:30.967Z,27.35
2022-12-15T04:43:31.515Z,27.88
2022-12-15T04:44:32.848Z,21.00
2022-12-15T04:45:35.292Z,25.52
2022-12-15T04:46:35.871Z,28.05
2022-12-15T04:47:36.749Z,27.52
2022-12-15T04:48:36.745Z,28.25
2022-12-15T04:49:37.100Z,25.67
2022-12-15T04:50:37.180Z,25.70
2022-12-15T04:51:37.283Z,27.33
2022-12-15T04:52:37.462Z,23.70
2022-12-15T04:53:38.492Z,26.13
2022-12-15T04:54:39.103Z,30.88
2022-12-15T04:55:39.432Z,28.20
2022-12-15T04:56:39.896Z,28.60
2022-12-15T04:57:40.059Z,25.60
2022-12-15T04:58:40.346Z,26.92
2022-12-15T04:59:40.881Z,25.10
2022-12-15T05:00:41.374Z,28.42
2022-12-15T05:01:43.481Z,31.25
2022-12-15T05:02:43.712Z,26.83
2022-12-15T05:03:43.958Z,25.80
2022-12-15T05:04:44.356Z,25.52
2022-12-15T05:05:44.447Z,25.75
2022-12-15T05:06:44.412Z,26.45
2022-12-15T05:07:45.117Z,25.13
2022-12-15T05:08:45.480Z,26.10
2022-12-15T05:09:50.852Z,24.55
2022-12-15T05:10:51.335Z,28.42
2022-12-15T05:11:51.755Z,26.70
2022-12-15T05:12:52.715Z,28.17
2022-12-15T05:13:53.010Z,28.35
2022-12-15T05:14:53.284Z,25.88
2022-12-15T05:15:55.393Z,28.83
2022-12-15T05:16:55.381Z,27.42
2022-12-15T05:17:55.435Z,25.17
2022-12-15T05:18:55.776Z,30.60
2022-12-15T05:19:56.161Z,26.85
2022-12-15T05:20:56.748Z,27.40
2022-12-15T05:22:00.163Z,26.83
2022-12-15T05:23:00.479Z,27.15
2022-12-15T05:24:00.704Z,30.20
2022-12-15T05:25:00.824Z,27.88
2022-12-15T05:26:04.663Z,28.67
2022-12-15T05:27:04.987Z,28.50
2022-12-15T05:28:05.346Z,27.98
2022-12-15T05:29:05.783Z,29.15
2022-12-15T05:30:06.093Z,28.83
2022-12-15T05:31:06.301Z,27.85
2022-12-15T05:31:57.880Z,30.65
2022-12-15T05:32:39.521Z,28.75
2022-12-15T05:33:21.608Z,24.85
2022-12-15T05:34:05.659Z,25.98
2022-12-15T05:34:47.631Z,28.77
2022-12-15T05:35:29.312Z,25.95
2022-12-15T05:36:10.978Z,26.15
2022-12-15T05:36:57.008Z,25.60
2022-12-15T05:37:38.704Z,25.25
2022-12-15T05:38:20.395Z,28.17
2022-12-15T05:39:02.059Z,26.90
2022-12-15T05:39:43.677Z,31.23
2022-12-15T05:40:25.342Z,27.33
2022-12-15T05:41:07.351Z,27.85
2022-12-15T05:41:50.341Z,27.33
2022-12-15T05:42:37.993Z,26.30
2022-12-15T05:43:26.041Z,25.38
2022-12-15T05:44:09.500Z,24.05
2022-12-15T05:44:51.212Z,25.77
2022-12-15T05:45:33.207Z,26.25
2022-12-15T05:46:15.524Z,26.73
2022-12-15T05:46:57.180Z,31.15
2022-12-15T05:47:38.829Z,27.48
2022-12-15T05:48:20.521Z,28.65
2022-12-15T05:49:06.686Z,26.92
2022-12-15T05:49:49.143Z,24.08
2022-12-15T05:50:30.893Z,27.20
2022-12-15T05:51:13.930Z,26.48
2022-12-15T05:51:58.379Z,27.70
2022-12-15T05:52:40.786Z,30.00
2022-12-15T05:53:24.533Z,28.20
2022-12-15T05:54:10.095Z,24.50
2022-12-15T05:54:51.828Z,26.77
2022-12-15T05:55:38.686Z,29.02
2022-12-15T05:56:20.433Z,27.60
2022-12-15T05:57:02.053Z,28.00
2022-12-15T05:57:43.703Z,25.92
2022-12-15T05:58:25.314Z,26.55
2022-12-15T05:59:07.559Z,27.80
2022-12-15T05:59:49.205Z,28.70
2022-12-15T06:00:32.984Z,26.15
2022-12-15T06:01:18.149Z,29.33
2022-12-15T06:02:02.936Z,30.02
2022-12-15T06:02:44.656Z,28.85
2022-12-15T06:03:26.305Z,27.33
2022-12-15T06:04:07.964Z,24.67
2022-12-15T06:04:49.715Z,29.25
2022-12-15T06:05:31.422Z,28.17
2022-12-15T06:06:16.553Z,30.05
2022-12-15T06:06:58.279Z,28.52
2022-12-15T06:07:39.930Z,27.33
2022-12-15T06:08:22.000Z,25.65
2022-12-15T06:09:03.827Z,24.65
2022-12-15T06:09:45.905Z,25.30
2022-12-15T06:10:27.659Z,25.38
2022-12-15T06:11:14.506Z,25.10
2022-12-15T06:11:56.216Z,24.83
2022-12-15T06:12:37.866Z,24.95
2022-12-15T06:13:19.992Z,25.40
2022-12-15T06:14:05.029Z,25.60
2022-12-15T06:14:46.691Z,25.45
2022-12-15T06:15:31.579Z,27.75
2022-12-15T06:16:15.815Z,25.50
2022-12-15T06:16:57.605Z,25.95
2022-12-15T06:17:39.327Z,25.70
2022-12-15T06:18:21.415Z,23.15
2022-12-15T06:19:06.728Z,25.25
2022-12-15T06:19:48.811Z,27.77
2022-12-15T06:20:30.492Z,26.30
2022-12-15T06:21:17.871Z,24.58
2022-12-15T06:21:59.631Z,24.55
2022-12-15T06:22:49.732Z,27.73
2022-12-15T06:23:37.659Z,26.90
2022-12-15T06:24:21.507Z,26.80
2022-12-15T06:25:03.376Z,24.45
2022-12-15T06:25:44.997Z,25.13
2022-12-15T06:26:38.270Z,25.70
2022-12-15T06:27:23.099Z,23.10
2022-12-15T06:28:04.882Z,24.00
2022-12-15T06:28:46.796Z,24.85
2022-12-15T06:29:28.433Z,26.63
2022-12-15T06:30:13.342Z,27.02
2022-12-15T06:30:56.136Z,23.77
2022-12-15T06:31:39.345Z,24.13
2022-12-15T06:32:21.627Z,25.10
2022-12-15T06:33:05.477Z,26.05
2022-12-15T06:33:47.548Z,24.95
2022-12-15T06:34:29.248Z,25.75
2022-12-15T06:35:10.894Z,23.67
2022-12-15T06:35:56.739Z,23.65
2022-12-15T06:36:39.291Z,23.35
2022-12-15T06:37:20.919Z,23.55
2022-12-15T06:38:02.582Z,27.05
2022-12-15T06:38:44.876Z,26.27
2022-12-15T06:39:31.570Z,28.02
2022-12-15T06:40:13.313Z,27.83
2022-12-15T06:40:56.383Z,29.65
2022-12-15T06:41:38.730Z,27.00
2022-12-15T06:42:20.618Z,26.67
2022-12-15T06:43:02.281Z,28.67
2022-12-15T06:43:44.733Z,28.90
2022-12-15T06:44:31.412Z,29.25
2022-12-15T06:45:13.052Z,27.90
2022-12-15T06:45:55.143Z,27.85
2022-12-15T06:46:42.490Z,30.40
2022-12-15T06:47:24.181Z,30.33
2022-12-15T06:48:06.214Z,29.27
2022-12-15T06:48:50.901Z,29.63
2022-12-15T06:49:32.657Z,30.73
2022-12-15T06:50:14.353Z,30.63
2022-12-15T06:50:58.767Z,31.50
2022-12-15T06:51:41.376Z,30.95
2022-12-15T06:52:23.028Z,34.42
2022-12-15T06:53:04.800Z,31.02
2022-12-15T06:53:50.845Z,26.60
2022-12-15T06:54:32.929Z,28.90
2022-12-15T06:55:14.642Z,29.50
2022-12-15T06:56:01.781Z,27.70
2022-12-15T06:56:43.441Z,28.02
2022-12-15T06:57:25.224Z,26.23
2022-12-15T06:58:09.573Z,26.90
2022-12-15T06:58:52.616Z,32.55
2022-12-15T06:59:37.172Z,28.20
2022-12-15T07:00:19.237Z,26.48
2022-12-15T07:01:07.981Z,29.70
2022-12-15T07:01:49.969Z,28.15
2022-12-15T07:02:33.030Z,26.90
2022-12-15T07:03:17.317Z,31.35
2022-12-15T07:04:01.350Z,27.30
2022-12-15T07:04:43.694Z,26.00
2022-12-15T07:05:25.343Z,25.10
2022-12-15T07:06:09.349Z,25.10
2022-12-15T07:06:51.044Z,24.25
2022-12-15T07:07:32.721Z,26.55
2022-12-15T07:08:16.242Z,26.80
2022-12-15T07:08:58.397Z,26.23
2022-12-15T07:09:41.396Z,25.33
2022-12-15T07:10:23.085Z,26.88
2022-12-15T07:11:07.061Z,26.60
2022-12-15T07:11:51.283Z,25.77
2022-12-15T07:12:33.352Z,26.75
2022-12-15T07:13:15.001Z,29.77
2022-12-15T07:13:57.127Z,25.10
2022-12-15T07:14:38.780Z,26.52
2022-12-15T07:15:23.366Z,27.45
2022-12-15T07:16:07.039Z,25.48
2022-12-15T07:16:48.799Z,27.10
2022-12-15T07:17:30.488Z,28.20
2022-12-15T07:18:12.136Z,29.55
2022-12-15T07:18:53.803Z,26.45
2022-12-15T07:19:35.441Z,25.83
2022-12-15T07:20:17.445Z,23.85
2022-12-15T07:21:04.852Z,23.08
2022-12-15T07:21:46.547Z,25.27
2022-12-15T07:22:31.570Z,24.55
2022-12-15T07:23:13.258Z,26.90
2022-12-15T07:23:56.717Z,22.98
2022-12-15T07:24:39.079Z,24.90
2022-12-15T07:25:20.878Z,25.70
2022-12-15T07:26:11.425Z,24.30
2022-12-15T07:26:53.587Z,25.08
2022-12-15T07:27:38.195Z,25.92
2022-12-15T07:28:25.466Z,23.88
2022-12-15T07:29:07.508Z,25.48
2022-12-15T07:29:49.543Z,26.65
2022-12-15T07:30:38.872Z,28.02
2022-12-15T07:31:21.842Z,25.95
2022-12-15T07:32:07.113Z,26.27
2022-12-15T07:32:51.580Z,25.63
2022-12-15T07:33:34.908Z,25.27
2022-12-15T07:34:16.611Z,26.65
2022-12-15T07:34:58.291Z,28.15
2022-12-15T07:35:39.975Z,24.27
2022-12-15T07:36:23.871Z,24.02
2022-12-15T07:37:06.877Z,26.23
2022-12-15T07:37:49.113Z,24.52
2022-12-15T07:38:31.553Z,24.67
2022-12-15T07:39:13.610Z,27.75
2022-12-15T07:39:55.252Z,27.30
2022-12-15T07:40:37.668Z,29.23
2022-12-15T07:41:20.444Z,26.58
2022-12-15T07:42:05.159Z,29.35
2022-12-15T07:42:46.920Z,25.63
2022-12-15T07:43:30.979Z,26.58
2022-12-15T07:44:14.694Z,28.13
2022-12-15T07:44:56.373Z,27.08
2022-12-15T07:45:40.544Z,27.63
2022-12-15T07:46:23.923Z,25.38
2022-12-15T07:47:08.420Z,27.80
2022-12-15T07:47:51.092Z,27.58
2022-12-15T07:48:33.383Z,30.25
2022-12-15T07:49:18.116Z,33.08
2022-12-15T07:50:00.029Z,29.60
2022-12-15T07:50:41.674Z,25.48
2022-12-15T07:51:25.939Z,26.15
2022-12-15T07:52:07.635Z,29.25
2022-12-15T07:52:53.844Z,32.17
2022-12-15T07:53:36.444Z,30.02
2022-12-15T07:54:18.289Z,30.75
2022-12-15T07:55:00.369Z,30.05
2022-12-15T07:56:05.699Z,30.85
2022-12-15T07:56:44.914Z,27.60
2022-12-15T07:57:34.592Z,28.73
2022-12-15T07:58:16.250Z,29.70
2022-12-15T07:58:57.910Z,30.17
2022-12-15T07:59:42.332Z,27.60
2022-12-15T08:00:23.981Z,27.48
2022-12-15T08:01:07.984Z,26.30
2022-12-15T08:01:50.627Z,29.40
2022-12-15T08:02:32.967Z,28.55
2022-12-15T08:03:15.252Z,30.73
2022-12-15T08:03:59.350Z,30.00
2022-12-15T08:04:44.600Z,28.25
2022-12-15T08:05:26.275Z,27.60
2022-12-15T08:06:10.116Z,25.50
2022-12-15T08:06:54.197Z,27.38
2022-12-15T08:07:38.837Z,28.10
2022-12-15T08:08:22.333Z,22.80
2022-12-15T08:09:04.417Z,27.25
2022-12-15T08:09:49.404Z,27.05
2022-12-15T08:10:31.582Z,24.63
2022-12-15T08:11:14.821Z,25.45
2022-12-15T08:11:59.258Z,26.15
2022-12-15T08:12:41.335Z,26.08
2022-12-15T08:13:52.975Z,28.05
2022-12-15T08:14:29.267Z,33.30
2022-12-15T08:15:11.702Z,28.58
2022-12-15T08:15:57.521Z,28.55
2022-12-15T08:16:42.435Z,26.88
2022-12-15T08:17:24.590Z,26.45
2022-12-15T08:18:07.469Z,25.95
2022-12-15T08:18:49.631Z,27.45
2022-12-15T08:19:34.133Z,29.60
2022-12-15T08:20:16.288Z,30.60
2022-12-15T08:21:03.334Z,26.92
2022-12-15T08:21:47.990Z,28.52
2022-12-15T08:22:32.598Z,27.98
2022-12-15T08:23:14.251Z,27.05
2022-12-15T08:23:56.353Z,29.20
2022-12-15T08:24:38.015Z,24.42
2022-12-15T08:25:19.735Z,25.42
2022-12-15T08:26:07.641Z,28.02
2022-12-15T08:26:50.645Z,29.48
2022-12-15T08:27:32.865Z,26.63
2022-12-15T08:28:15.481Z,26.48
2022-12-15T08:29:11.747Z,25.30
2022-12-15T08:29:59.617Z,32.85
2022-12-15T08:30:41.294Z,28.30
2022-12-15T08:31:26.476Z,28.80
2022-12-15T08:32:08.312Z,29.10
2022-12-15T08:32:52.215Z,28.23
2022-12-15T08:33:34.825Z,25.70
2022-12-15T08:34:16.669Z,29.98
2022-12-15T08:34:58.384Z,29.15
2022-12-15T08:35:56.271Z,29.92
2022-12-15T08:36:39.126Z,26.13
2022-12-15T08:37:21.200Z,26.77
2022-12-15T08:38:05.679Z,30.30
2022-12-15T08:38:48.126Z,29.70
2022-12-15T08:39:29.839Z,30.98
2022-12-15T08:40:12.116Z,32.15
2022-12-15T08:40:53.770Z,29.90
2022-12-15T08:41:35.485Z,30.60
2022-12-15T08:42:17.229Z,32.70
2022-12-15T08:42:58.878Z,29.60
2022-12-15T08:43:47.582Z,31.20
2022-12-15T08:44:32.739Z,31.48
2022-12-15T08:45:14.880Z,30.67
2022-12-15T08:45:57.527Z,33.78
2022-12-15T08:46:39.916Z,31.63
2022-12-15T08:47:24.364Z,28.30
2022-12-15T08:48:06.124Z,28.80
2022-12-15T08:48:48.228Z,29.80
2022-12-15T08:49:29.912Z,31.17
2022-12-15T08:50:11.668Z,30.63
2022-12-15T08:50:58.995Z,30.13
2022-12-15T08:51:40.652Z,34.30
2022-12-15T08:52:23.506Z,33.58
2022-12-15T08:53:30.345Z,31.55
2022-12-15T08:54:06.787Z,40.65
2022-12-15T08:54:48.956Z,40.13
2022-12-15T08:55:34.007Z,31.63
2022-12-15T08:56:18.219Z,33.17
2022-12-15T08:57:00.281Z,33.67
2022-12-15T08:57:41.992Z,32.38
2022-12-15T08:58:24.065Z,36.42
2022-12-15T08:59:06.155Z,33.67
2022-12-15T08:59:47.867Z,32.03
2022-12-15T09:00:29.947Z,38.60
2022-12-15T09:01:22.440Z,38.03
2022-12-15T09:02:05.504Z,34.92
2022-12-15T09:02:47.265Z,35.05
2022-12-15T09:03:29.747Z,34.53
2022-12-15T09:04:12.222Z,39.05
2022-12-15T09:04:54.455Z,40.45
2022-12-15T09:05:39.192Z,39.42
2022-12-15T09:06:30.680Z,41.92
2022-12-15T09:07:12.413Z,41.95
2022-12-15T09:08:04.614Z,44.80
2022-12-15T09:08:48.560Z,40.28
2022-12-15T09:09:35.131Z,40.40
2022-12-15T09:10:17.260Z,40.75
2022-12-15T09:10:59.493Z,41.78
2022-12-15T09:11:41.160Z,43.15
2022-12-15T09:12:22.864Z,42.33
2022-12-15T09:13:04.934Z,41.97
2022-12-15T09:13:46.734Z,43.40
2022-12-15T09:14:29.622Z,44.72
2022-12-15T09:15:11.976Z,44.92
2022-12-15T09:16:10.662Z,41.97
2022-12-15T09:16:53.004Z,41.78
2022-12-15T09:17:34.750Z,40.38
2022-12-15T09:18:16.394Z,42.28
2022-12-15T09:18:59.729Z,41.10
2022-12-15T09:19:41.461Z,42.92
2022-12-15T09:20:25.964Z,42.33
2022-12-15T09:21:08.802Z,37.47
2022-12-15T09:21:50.567Z,39.85
2022-12-15T09:22:32.254Z,42.55
2022-12-15T09:23:13.911Z,41.80
2022-12-15T09:24:00.348Z,41.03
2022-12-15T09:24:42.653Z,40.17
2022-12-15T09:25:26.945Z,42.33
2022-12-15T09:26:15.841Z,42.63
2022-12-15T09:26:57.951Z,41.85
2022-12-15T09:27:39.619Z,41.42
2022-12-15T09:28:21.291Z,49.35
2022-12-15T09:29:03.347Z,43.65
2022-12-15T09:29:45.027Z,38.13
2022-12-15T09:30:26.731Z,41.47
2022-12-15T09:31:21.252Z,38.58
2022-12-15T09:32:06.492Z,39.38
2022-12-15T09:32:51.100Z,40.47
2022-12-15T09:33:33.596Z,40.15
2022-12-15T09:34:16.979Z,41.75
2022-12-15T09:34:59.052Z,43.83
2022-12-15T09:35:43.347Z,43.58
2022-12-15T09:36:25.861Z,39.30
2022-12-15T09:37:08.972Z,43.00
2022-12-15T09:37:53.855Z,46.70
2022-12-15T09:38:39.320Z,49.28
2022-12-15T09:39:23.747Z,47.42
2022-12-15T09:40:06.650Z,45.00
2022-12-15T09:40:49.913Z,41.30
2022-12-15T09:41:36.275Z,41.47
2022-12-15T09:42:32.109Z,38.30
2022-12-15T09:43:34.356Z,43.90
2022-12-15T09:44:18.904Z,41.65
2022-12-15T09:45:03.624Z,42.97
2022-12-15T09:45:56.051Z,40.17
2022-12-15T09:46:50.160Z,40.40
2022-12-15T09:47:39.949Z,42.30
2022-12-15T09:48:24.851Z,48.22
2022-12-15T09:49:33.767Z,46.25
2022-12-15T09:50:16.892Z,45.40
2022-12-15T09:50:59.323Z,41.10
2022-12-15T09:51:49.085Z,44.33
2022-12-15T09:52:40.349Z,46.55
2022-12-15T09:53:54.270Z,48.83
2022-12-15T09:54:33.927Z,43.30
2022-12-15T09:55:19.915Z,45.70
2022-12-15T09:56:11.342Z,47.22
2022-12-15T09:56:58.672Z,46.95
2022-12-15T09:57:52.671Z,46.63
2022-12-15T09:58:53.632Z,44.72
2022-12-15T09:59:51.275Z,46.38
2022-12-15T10:00:39.041Z,40.85
2022-12-15T10:01:59.136Z,43.45
2022-12-15T10:03:00.379Z,46.40
2022-12-15T10:04:14.925Z,44.92
2022-12-15T10:05:06.434Z,41.30
2022-12-15T10:06:18.096Z,45.72
2022-12-15T10:07:01.184Z,45.15
2022-12-15T10:07:46.768Z,43.88
2022-12-15T10:08:36.317Z,44.08
2022-12-15T10:09:22.606Z,43.92
2022-12-15T10:10:17.975Z,45.40
2022-12-15T10:11:01.670Z,49.13
2022-12-15T10:11:55.412Z,46.13
2022-12-15T10:12:43.553Z,45.05
2022-12-15T10:13:52.388Z,44.88
2022-12-15T10:14:45.728Z,43.10
2022-12-15T10:15:44.228Z,47.58
2022-12-15T10:17:07.480Z,47.17
2022-12-15T10:17:52.907Z,47.10
2022-12-15T10:18:42.197Z,47.65
2022-12-15T10:19:52.970Z,44.88
2022-12-15T10:20:35.294Z,48.53
2022-12-15T10:21:19.769Z,48.85